sensor_id;sensor_type;location;lat;lon;timestamp;P1;P2;P0
62599;PMS7003;48671;48.922;2.346;2022-11-25T00:00:33;91.75;74.00;65.00
62599;PMS7003;48671;48.922;2.346;2022-11-25T00:02:58;93.00;76.25;62.00
62599;PMS7003;48671;48.922;2.346;2022-11-25T00:05:24;91.25;71.00;64.50
62599;PMS7003;48671;48.922;2.346;2022-11-25T00:07:49;63.33;53.00;40.67
62599;PMS7003;48671;48.922;2.346;2022-11-25T00:10:15;91.50;72.00;62.25
62599;PMS7003;48671;48.922;2.346;2022-11-25T00:12:40;76.00;55.00;42.33
62599;PMS7003;48671;48.922;2.346;2022-11-25T00:15:06;78.33;57.33;46.00
62599;PMS7003;48671;48.922;2.346;2022-11-25T00:17:31;77.33;56.67;44.00
62599;PMS7003;48671;48.922;2.346;2022-11-25T00:19:57;78.00;55.00;42.25
62599;PMS7003;48671;48.922;2.346;2022-11-25T00:22:25;76.00;54.00;41.00
62599;PMS7003;48671;48.922;2.346;2022-11-25T00:24:50;75.00;54.33;42.00
62599;PMS7003;48671;48.922;2.346;2022-11-25T00:27:16;86.00;62.75;52.25
62599;PMS7003;48671;48.922;2.346;2022-11-25T00:29:41;75.00;54.50;42.25
62599;PMS7003;48671;48.922;2.346;2022-11-25T00:32:06;78.25;58.25;47.25
62599;PMS7003;48671;48.922;2.346;2022-11-25T00:34:32;77.50;56.50;44.00
62599;PMS7003;48671;48.922;2.346;2022-11-25T00:36:57;76.33;55.67;43.67
62599;PMS7003;48671;48.922;2.346;2022-11-25T00:39:22;75.00;55.33;42.33
62599;PMS7003;48671;48.922;2.346;2022-11-25T00:41:49;77.33;56.33;44.00
62599;PMS7003;48671;48.922;2.346;2022-11-25T00:44:33;78.67;58.33;46.67
62599;PMS7003;48671;48.922;2.346;2022-11-25T00:49:30;79.75;59.50;49.00
62599;PMS7003;48671;48.922;2.346;2022-11-25T00:51:56;64.67;54.33;41.33
62599;PMS7003;48671;48.922;2.346;2022-11-25T00:54:22;75.00;55.00;42.25
62599;PMS7003;48671;48.922;2.346;2022-11-25T00:56:47;78.25;58.00;47.00
62599;PMS7003;48671;48.922;2.346;2022-11-25T00:59:13;77.00;57.00;45.75
62599;PMS7003;48671;48.922;2.346;2022-11-25T01:01:38;76.67;56.67;44.33
62599;PMS7003;48671;48.922;2.346;2022-11-25T01:04:05;84.33;63.00;57.00
62599;PMS7003;48671;48.922;2.346;2022-11-25T01:06:31;80.50;60.25;49.75
62599;PMS7003;48671;48.922;2.346;2022-11-25T01:08:56;74.00;54.00;41.00
62599;PMS7003;48671;48.922;2.346;2022-11-25T01:11:21;66.25;47.25;36.00
62599;PMS7003;48671;48.922;2.346;2022-11-25T01:13:48;65.75;55.00;42.00
62599;PMS7003;48671;48.922;2.346;2022-11-25T01:16:15;95.00;81.00;58.00
62599;PMS7003;48671;48.922;2.346;2022-11-25T01:18:43;84.00;63.33;55.33
62599;PMS7003;48671;48.922;2.346;2022-11-25T01:21:10;91.00;72.50;67.25
62599;PMS7003;48671;48.922;2.346;2022-11-25T01:23:38;65.67;55.67;43.00
62599;PMS7003;48671;48.922;2.346;2022-11-25T01:26:04;87.00;64.25;59.25
62599;PMS7003;48671;48.922;2.346;2022-11-25T01:28:34;91.80;77.80;63.80
62599;PMS7003;48671;48.922;2.346;2022-11-25T01:31:07;84.25;62.25;55.75
62599;PMS7003;48671;48.922;2.346;2022-11-25T01:33:34;85.00;63.33;58.00
62599;PMS7003;48671;48.922;2.346;2022-11-25T01:36:04;84.00;63.00;55.00
62599;PMS7003;48671;48.922;2.346;2022-11-25T01:38:31;82.25;61.00;53.00
62599;PMS7003;48671;48.922;2.346;2022-11-25T01:40:57;63.33;52.67;41.33
62599;PMS7003;48671;48.922;2.346;2022-11-25T01:43:23;82.00;61.33;52.00
62599;PMS7003;48671;48.922;2.346;2022-11-25T01:45:49;91.25;73.75;66.50
62599;PMS7003;48671;48.922;2.346;2022-11-25T01:48:17;80.67;58.33;48.67
62599;PMS7003;48671;48.922;2.346;2022-11-25T01:50:48;74.67;60.67;52.67
62599;PMS7003;48671;48.922;2.346;2022-11-25T01:53:15;72.67;60.00;50.67
62599;PMS7003;48671;48.922;2.346;2022-11-25T01:55:43;81.67;61.00;51.33
62599;PMS7003;48671;48.922;2.346;2022-11-25T01:58:15;75.67;62.67;56.67
62599;PMS7003;48671;48.922;2.346;2022-11-25T02:00:45;88.33;66.33;62.33
62599;PMS7003;48671;48.922;2.346;2022-11-25T02:03:16;81.33;59.67;50.67
62599;PMS7003;48671;48.922;2.346;2022-11-25T02:08:39;93.50;79.75;69.50
62599;PMS7003;48671;48.922;2.346;2022-11-25T02:11:06;93.75;80.00;64.75
62599;PMS7003;48671;48.922;2.346;2022-11-25T02:13:31;83.00;61.33;51.67
62599;PMS7003;48671;48.922;2.346;2022-11-25T02:15:57;77.67;57.33;47.00
62599;PMS7003;48671;48.922;2.346;2022-11-25T02:18:24;61.00;51.67;40.33
62599;PMS7003;48671;48.922;2.346;2022-11-25T02:20:50;79.00;57.33;46.00
62599;PMS7003;48671;48.922;2.346;2022-11-25T02:25:50;73.00;53.67;42.00
62599;PMS7003;48671;48.922;2.346;2022-11-25T02:28:23;78.00;56.00;43.67
62599;PMS7003;48671;48.922;2.346;2022-11-25T02:30:52;74.00;53.00;41.00
62599;PMS7003;48671;48.922;2.346;2022-11-25T02:33:18;66.40;46.80;35.20
62599;PMS7003;48671;48.922;2.346;2022-11-25T02:38:23;70.20;50.20;39.20
62599;PMS7003;48671;48.922;2.346;2022-11-25T02:40:53;74.33;60.00;49.00
62599;PMS7003;48671;48.922;2.346;2022-11-25T02:43:24;77.33;57.67;46.67
62599;PMS7003;48671;48.922;2.346;2022-11-25T02:48:21;81.00;59.33;50.00
62599;PMS7003;48671;48.922;2.346;2022-11-25T02:50:48;82.00;58.67;48.33
62599;PMS7003;48671;48.922;2.346;2022-11-25T02:53:13;77.33;56.33;45.33
62599;PMS7003;48671;48.922;2.346;2022-11-25T02:55:39;84.00;61.67;53.67
62599;PMS7003;48671;48.922;2.346;2022-11-25T02:58:05;80.00;59.00;50.00
62599;PMS7003;48671;48.922;2.346;2022-11-25T03:00:31;78.67;56.00;45.00
62599;PMS7003;48671;48.922;2.346;2022-11-25T03:02:56;78.67;58.33;48.00
62599;PMS7003;48671;48.922;2.346;2022-11-25T03:05:21;78.67;59.00;48.67
62599;PMS7003;48671;48.922;2.346;2022-11-25T03:07:47;78.33;58.00;47.33
62599;PMS7003;48671;48.922;2.346;2022-11-25T03:10:13;77.00;56.67;46.67
62599;PMS7003;48671;48.922;2.346;2022-11-25T03:12:38;78.67;57.33;48.00
62599;PMS7003;48671;48.922;2.346;2022-11-25T03:15:04;77.00;56.00;45.33
62599;PMS7003;48671;48.922;2.346;2022-11-25T03:17:30;70.33;51.67;41.00
62599;PMS7003;48671;48.922;2.346;2022-11-25T03:19:55;79.33;56.33;45.33
62599;PMS7003;48671;48.922;2.346;2022-11-25T03:22:20;77.33;62.33;55.67
62599;PMS7003;48671;48.922;2.346;2022-11-25T03:24:46;78.67;57.67;48.00
62599;PMS7003;48671;48.922;2.346;2022-11-25T03:27:11;79.67;58.00;47.00
62599;PMS7003;48671;48.922;2.346;2022-11-25T03:29:36;75.33;54.33;41.33
62599;PMS7003;48671;48.922;2.346;2022-11-25T03:32:02;86.33;64.00;58.33
62599;PMS7003;48671;48.922;2.346;2022-11-25T03:34:27;79.00;58.33;49.00
62599;PMS7003;48671;48.922;2.346;2022-11-25T03:36:53;79.33;58.00;47.67
62599;PMS7003;48671;48.922;2.346;2022-11-25T03:39:18;70.00;59.00;49.00
62599;PMS7003;48671;48.922;2.346;2022-11-25T03:41:43;77.33;56.00;45.33
62599;PMS7003;48671;48.922;2.346;2022-11-25T03:44:09;90.67;68.67;66.33
62599;PMS7003;48671;48.922;2.346;2022-11-25T03:46:34;75.00;54.00;42.67
62599;PMS7003;48671;48.922;2.346;2022-11-25T03:48:59;83.33;60.33;53.33
62599;PMS7003;48671;48.922;2.346;2022-11-25T03:51:25;83.67;61.33;54.67
62599;PMS7003;48671;48.922;2.346;2022-11-25T03:53:50;79.67;58.33;48.33
62599;PMS7003;48671;48.922;2.346;2022-11-25T03:56:15;64.00;54.00;42.33
62599;PMS7003;48671;48.922;2.346;2022-11-25T03:58:40;77.00;55.33;44.67
62599;PMS7003;48671;48.922;2.346;2022-11-25T04:01:06;79.00;57.33;47.67
62599;PMS7003;48671;48.922;2.346;2022-11-25T04:03:31;77.33;55.67;45.00
62599;PMS7003;48671;48.922;2.346;2022-11-25T04:05:57;78.00;57.33;47.00
62599;PMS7003;48671;48.922;2.346;2022-11-25T04:08:22;87.00;63.33;59.00
62599;PMS7003;48671;48.922;2.346;2022-11-25T04:10:48;77.33;57.33;46.67
62599;PMS7003;48671;48.922;2.346;2022-11-25T04:13:14;72.33;53.00;42.33
62599;PMS7003;48671;48.922;2.346;2022-11-25T04:15:47;78.67;57.33;47.67
62599;PMS7003;48671;48.922;2.346;2022-11-25T04:18:13;82.00;60.67;52.00
62599;PMS7003;48671;48.922;2.346;2022-11-25T04:20:39;79.67;58.00;48.00
62599;PMS7003;48671;48.922;2.346;2022-11-25T04:23:05;76.67;55.67;43.33
62599;PMS7003;48671;48.922;2.346;2022-11-25T04:25:31;66.00;46.00;37.00
62599;PMS7003;48671;48.922;2.346;2022-11-25T04:27:56;81.33;58.67;48.33
62599;PMS7003;48671;48.922;2.346;2022-11-25T04:30:22;79.33;59.00;49.33
62599;PMS7003;48671;48.922;2.346;2022-11-25T04:32:47;72.33;53.33;42.00
62599;PMS7003;48671;48.922;2.346;2022-11-25T04:35:12;79.67;58.00;48.33
62599;PMS7003;48671;48.922;2.346;2022-11-25T04:37:38;76.33;54.33;43.33
62599;PMS7003;48671;48.922;2.346;2022-11-25T04:40:03;81.33;58.67;50.00
62599;PMS7003;48671;48.922;2.346;2022-11-25T04:42:29;77.33;56.33;45.67
62599;PMS7003;48671;48.922;2.346;2022-11-25T04:44:58;67.67;48.00;38.33
62599;PMS7003;48671;48.922;2.346;2022-11-25T04:47:25;72.00;51.33;41.00
62599;PMS7003;48671;48.922;2.346;2022-11-25T04:49:50;79.67;58.00;47.67
62599;PMS7003;48671;48.922;2.346;2022-11-25T04:52:16;76.67;56.00;45.33
62599;PMS7003;48671;48.922;2.346;2022-11-25T04:54:41;82.67;60.33;53.33
62599;PMS7003;48671;48.922;2.346;2022-11-25T04:57:07;76.67;55.33;43.00
62599;PMS7003;48671;48.922;2.346;2022-11-25T04:59:36;78.00;56.00;45.00
62599;PMS7003;48671;48.922;2.346;2022-11-25T05:02:11;77.67;55.33;44.33
62599;PMS7003;48671;48.922;2.346;2022-11-25T05:04:39;86.00;64.33;58.33
62599;PMS7003;48671;48.922;2.346;2022-11-25T05:07:05;71.33;51.33;40.00
62599;PMS7003;48671;48.922;2.346;2022-11-25T05:09:30;65.33;45.33;37.00
62599;PMS7003;48671;48.922;2.346;2022-11-25T05:11:55;75.67;55.00;45.00
62599;PMS7003;48671;48.922;2.346;2022-11-25T05:14:21;78.33;56.00;45.33
62599;PMS7003;48671;48.922;2.346;2022-11-25T05:16:47;77.33;56.00;46.00
62599;PMS7003;48671;48.922;2.346;2022-11-25T05:19:13;74.67;53.00;42.33
62599;PMS7003;48671;48.922;2.346;2022-11-25T05:21:38;79.00;53.33;42.33
62599;PMS7003;48671;48.922;2.346;2022-11-25T05:24:04;85.33;62.67;53.67
62599;PMS7003;48671;48.922;2.346;2022-11-25T05:26:29;75.33;53.67;42.33
62599;PMS7003;48671;48.922;2.346;2022-11-25T05:28:54;75.33;53.33;42.67
62599;PMS7003;48671;48.922;2.346;2022-11-25T05:31:20;69.00;49.00;38.33
62599;PMS7003;48671;48.922;2.346;2022-11-25T05:33:45;72.00;52.67;42.00
62599;PMS7003;48671;48.922;2.346;2022-11-25T05:36:10;74.33;53.67;42.33
62599;PMS7003;48671;48.922;2.346;2022-11-25T05:38:36;77.67;57.00;47.00
62599;PMS7003;48671;48.922;2.346;2022-11-25T05:41:02;81.33;59.67;52.00
62599;PMS7003;48671;48.922;2.346;2022-11-25T05:43:29;72.00;53.00;42.67
62599;PMS7003;48671;48.922;2.346;2022-11-25T05:45:55;76.33;54.67;43.67
62599;PMS7003;48671;48.922;2.346;2022-11-25T05:48:21;72.00;52.67;42.00
62599;PMS7003;48671;48.922;2.346;2022-11-25T05:50:46;74.00;54.33;42.33
62599;PMS7003;48671;48.922;2.346;2022-11-25T05:53:11;53.33;46.67;35.33
62599;PMS7003;48671;48.922;2.346;2022-11-25T05:55:38;74.00;53.00;42.33
62599;PMS7003;48671;48.922;2.346;2022-11-25T05:58:03;69.00;48.33;39.00
62599;PMS7003;48671;48.922;2.346;2022-11-25T06:00:30;75.67;55.33;44.00
62599;PMS7003;48671;48.922;2.346;2022-11-25T06:02:56;70.67;51.33;41.67
62599;PMS7003;48671;48.922;2.346;2022-11-25T06:05:21;73.33;54.33;43.00
62599;PMS7003;48671;48.922;2.346;2022-11-25T06:07:47;72.33;51.00;41.00
62599;PMS7003;48671;48.922;2.346;2022-11-25T06:10:12;78.00;55.67;44.33
62599;PMS7003;48671;48.922;2.346;2022-11-25T06:12:38;65.00;42.00;35.00
62599;PMS7003;48671;48.922;2.346;2022-11-25T06:15:03;75.67;54.33;42.33
62599;PMS7003;48671;48.922;2.346;2022-11-25T06:17:29;78.00;56.00;45.00
62599;PMS7003;48671;48.922;2.346;2022-11-25T06:19:55;83.33;60.00;52.33
62599;PMS7003;48671;48.922;2.346;2022-11-25T06:22:20;82.00;60.33;51.33
62599;PMS7003;48671;48.922;2.346;2022-11-25T06:24:45;74.33;52.00;41.67
62599;PMS7003;48671;48.922;2.346;2022-11-25T06:27:11;71.33;51.00;41.33
62599;PMS7003;48671;48.922;2.346;2022-11-25T06:29:36;74.00;52.00;41.67
62599;PMS7003;48671;48.922;2.346;2022-11-25T06:32:02;77.67;56.33;46.00
62599;PMS7003;48671;48.922;2.346;2022-11-25T06:34:27;81.33;59.67;50.67
62599;PMS7003;48671;48.922;2.346;2022-11-25T06:36:53;80.00;58.33;49.33
62599;PMS7003;48671;48.922;2.346;2022-11-25T06:39:18;91.00;68.33;66.00
62599;PMS7003;48671;48.922;2.346;2022-11-25T06:41:44;94.00;72.33;69.33
62599;PMS7003;48671;48.922;2.346;2022-11-25T06:44:11;79.33;57.67;47.67
62599;PMS7003;48671;48.922;2.346;2022-11-25T06:46:36;76.50;55.25;44.50
62599;PMS7003;48671;48.922;2.346;2022-11-25T06:49:01;75.00;53.67;42.33
62599;PMS7003;48671;48.922;2.346;2022-11-25T06:51:27;77.00;54.33;43.00
62599;PMS7003;48671;48.922;2.346;2022-11-25T06:53:53;80.50;58.00;48.00
62599;PMS7003;48671;48.922;2.346;2022-11-25T06:58:45;72.00;50.33;40.33
62599;PMS7003;48671;48.922;2.346;2022-11-25T07:01:16;76.33;55.67;44.33
62599;PMS7003;48671;48.922;2.346;2022-11-25T07:03:53;83.00;61.00;53.33
62599;PMS7003;48671;48.922;2.346;2022-11-25T07:06:20;74.67;53.33;42.33
62599;PMS7003;48671;48.922;2.346;2022-11-25T07:08:46;74.00;54.33;42.33
62599;PMS7003;48671;48.922;2.346;2022-11-25T07:11:16;73.33;52.67;42.33
62599;PMS7003;48671;48.922;2.346;2022-11-25T07:13:46;81.33;60.00;51.33
62599;PMS7003;48671;48.922;2.346;2022-11-25T07:16:13;78.67;56.67;47.67
62599;PMS7003;48671;48.922;2.346;2022-11-25T07:18:39;73.25;51.25;41.25
62599;PMS7003;48671;48.922;2.346;2022-11-25T07:21:06;84.50;61.75;54.25
62599;PMS7003;48671;48.922;2.346;2022-11-25T07:23:33;78.67;56.67;46.33
62599;PMS7003;48671;48.922;2.346;2022-11-25T07:26:00;77.75;56.25;45.00
62599;PMS7003;48671;48.922;2.346;2022-11-25T07:28:30;85.00;62.25;54.00
62599;PMS7003;48671;48.922;2.346;2022-11-25T07:30:55;81.50;60.50;52.25
62599;PMS7003;48671;48.922;2.346;2022-11-25T07:33:28;71.50;50.00;39.50
62599;PMS7003;48671;48.922;2.346;2022-11-25T07:35:54;84.00;60.75;52.50
62599;PMS7003;48671;48.922;2.346;2022-11-25T07:38:19;77.33;55.33;43.67
62599;PMS7003;48671;48.922;2.346;2022-11-25T07:40:44;77.25;55.75;45.25
62599;PMS7003;48671;48.922;2.346;2022-11-25T07:43:10;79.00;57.00;46.50
62599;PMS7003;48671;48.922;2.346;2022-11-25T07:45:35;80.25;59.00;49.50
62599;PMS7003;48671;48.922;2.346;2022-11-25T07:48:00;78.75;57.25;47.25
62599;PMS7003;48671;48.922;2.346;2022-11-25T07:50:26;81.00;60.00;51.00
62599;PMS7003;48671;48.922;2.346;2022-11-25T07:52:52;77.25;54.00;43.25
62599;PMS7003;48671;48.922;2.346;2022-11-25T07:55:17;85.00;61.50;54.25
62599;PMS7003;48671;48.922;2.346;2022-11-25T07:57:43;60.33;37.67;29.33
62599;PMS7003;48671;48.922;2.346;2022-11-25T08:00:08;51.00;27.33;23.67
62599;PMS7003;48671;48.922;2.346;2022-11-25T08:02:34;63.75;41.50;33.75
62599;PMS7003;48671;48.922;2.346;2022-11-25T08:04:59;71.50;51.25;41.25
62599;PMS7003;48671;48.922;2.346;2022-11-25T08:07:24;76.50;54.25;42.25
62599;PMS7003;48671;48.922;2.346;2022-11-25T08:09:50;71.50;50.00;40.00
62599;PMS7003;48671;48.922;2.346;2022-11-25T08:12:15;78.75;56.50;45.25
62599;PMS7003;48671;48.922;2.346;2022-11-25T08:14:41;79.00;57.50;46.75
62599;PMS7003;48671;48.922;2.346;2022-11-25T08:17:06;70.33;48.67;38.33
62599;PMS7003;48671;48.922;2.346;2022-11-25T08:19:32;77.25;53.50;41.50
62599;PMS7003;48671;48.922;2.346;2022-11-25T08:21:57;72.25;52.25;42.25
62599;PMS7003;48671;48.922;2.346;2022-11-25T08:24:23;78.75;57.25;46.75
62599;PMS7003;48671;48.922;2.346;2022-11-25T08:26:48;80.00;57.25;46.75
62599;PMS7003;48671;48.922;2.346;2022-11-25T08:29:14;77.25;55.50;43.25
62599;PMS7003;48671;48.922;2.346;2022-11-25T08:31:40;73.00;51.75;41.50
62599;PMS7003;48671;48.922;2.346;2022-11-25T08:34:06;82.00;59.50;49.75
62599;PMS7003;48671;48.922;2.346;2022-11-25T08:36:32;68.75;49.50;38.00
62599;PMS7003;48671;48.922;2.346;2022-11-25T08:39:00;82.00;59.50;51.00
62599;PMS7003;48671;48.922;2.346;2022-11-25T08:41:29;81.00;57.50;49.25
62599;PMS7003;48671;48.922;2.346;2022-11-25T08:43:57;78.75;56.50;46.50
62599;PMS7003;48671;48.922;2.346;2022-11-25T08:46:26;86.25;63.00;56.00
62599;PMS7003;48671;48.922;2.346;2022-11-25T08:48:53;81.75;58.75;49.00
62599;PMS7003;48671;48.922;2.346;2022-11-25T08:51:21;61.67;42.00;34.67
62599;PMS7003;48671;48.922;2.346;2022-11-25T08:53:48;78.50;56.75;45.25
62599;PMS7003;48671;48.922;2.346;2022-11-25T08:56:15;52.67;43.67;28.33
62599;PMS7003;48671;48.922;2.346;2022-11-25T08:58:41;91.00;67.75;65.50
62599;PMS7003;48671;48.922;2.346;2022-11-25T09:01:07;76.00;54.67;43.67
62599;PMS7003;48671;48.922;2.346;2022-11-25T09:03:43;52.67;33.33;27.33
62599;PMS7003;48671;48.922;2.346;2022-11-25T09:06:11;90.25;69.00;65.25
62599;PMS7003;48671;48.922;2.346;2022-11-25T09:08:37;72.33;45.33;36.00
62599;PMS7003;48671;48.922;2.346;2022-11-25T09:11:04;87.00;61.75;52.75
62599;PMS7003;48671;48.922;2.346;2022-11-25T09:13:30;63.33;42.33;34.33
62599;PMS7003;48671;48.922;2.346;2022-11-25T09:15:55;82.67;59.67;51.67
62599;PMS7003;48671;48.922;2.346;2022-11-25T09:18:21;85.00;59.00;50.25
62599;PMS7003;48671;48.922;2.346;2022-11-25T09:20:50;80.33;58.00;49.00
62599;PMS7003;48671;48.922;2.346;2022-11-25T09:23:16;69.75;48.50;38.50
62599;PMS7003;48671;48.922;2.346;2022-11-25T09:25:49;67.00;46.67;37.67
62599;PMS7003;48671;48.922;2.346;2022-11-25T09:28:16;82.33;61.33;54.67
62599;PMS7003;48671;48.922;2.346;2022-11-25T09:30:41;91.33;71.00;69.00
62599;PMS7003;48671;48.922;2.346;2022-11-25T09:33:07;76.00;55.00;43.67
62599;PMS7003;48671;48.922;2.346;2022-11-25T09:35:33;58.67;37.00;30.67
62599;PMS7003;48671;48.922;2.346;2022-11-25T09:37:58;82.67;59.33;51.00
62599;PMS7003;48671;48.922;2.346;2022-11-25T09:40:44;72.33;49.67;39.00
62599;PMS7003;48671;48.922;2.346;2022-11-25T09:46:28;68.00;56.00;45.00
62599;PMS7003;48671;48.922;2.346;2022-11-25T09:52:15;85.33;63.33;58.33
62599;PMS7003;48671;48.922;2.346;2022-11-25T09:54:48;86.33;62.67;56.00
62599;PMS7003;48671;48.922;2.346;2022-11-25T09:57:33;83.33;61.33;55.00
62599;PMS7003;48671;48.922;2.346;2022-11-25T10:00:15;81.75;59.25;50.75
62599;PMS7003;48671;48.922;2.346;2022-11-25T10:02:52;91.67;68.67;66.00
62599;PMS7003;48671;48.922;2.346;2022-11-25T10:05:27;73.67;52.00;41.33
62599;PMS7003;48671;48.922;2.346;2022-11-25T10:08:11;47.67;43.00;34.67
62599;PMS7003;48671;48.922;2.346;2022-11-25T10:10:45;84.67;62.00;56.67
62599;PMS7003;48671;48.922;2.346;2022-11-25T10:13:16;68.00;48.33;38.33
62599;PMS7003;48671;48.922;2.346;2022-11-25T10:15:51;88.33;65.67;62.67
62599;PMS7003;48671;48.922;2.346;2022-11-25T10:21:08;82.33;58.67;50.00
62599;PMS7003;48671;48.922;2.346;2022-11-25T10:23:36;71.00;59.00;51.00
62599;PMS7003;48671;48.922;2.346;2022-11-25T10:26:13;82.33;60.67;55.00
62599;PMS7003;48671;48.922;2.346;2022-11-25T10:28:43;83.00;60.75;54.00
62599;PMS7003;48671;48.922;2.346;2022-11-25T10:31:32;80.67;65.67;62.67
62599;PMS7003;48671;48.922;2.346;2022-11-25T10:34:00;82.33;59.33;52.00
62599;PMS7003;48671;48.922;2.346;2022-11-25T10:36:37;83.00;60.67;53.67
62599;PMS7003;48671;48.922;2.346;2022-11-25T10:41:57;78.67;64.33;59.67
62599;PMS7003;48671;48.922;2.346;2022-11-25T10:44:31;74.67;57.67;47.67
62599;PMS7003;48671;48.922;2.346;2022-11-25T10:47:08;75.00;60.00;51.00
62599;PMS7003;48671;48.922;2.346;2022-11-25T10:52:27;81.00;68.00;62.33
62599;PMS7003;48671;48.922;2.346;2022-11-25T10:55:17;77.00;62.25;55.00
62599;PMS7003;48671;48.922;2.346;2022-11-25T10:57:44;79.33;64.00;58.67
62599;PMS7003;48671;48.922;2.346;2022-11-25T11:03:21;79.67;67.33;61.33
62599;PMS7003;48671;48.922;2.346;2022-11-25T11:05:50;71.00;59.00;48.33
62599;PMS7003;48671;48.922;2.346;2022-11-25T11:08:18;71.33;58.00;46.33
62599;PMS7003;48671;48.922;2.346;2022-11-25T11:10:47;76.33;62.00;55.00
62599;PMS7003;48671;48.922;2.346;2022-11-25T11:13:33;80.00;62.67;55.33
62599;PMS7003;48671;48.922;2.346;2022-11-25T11:15:58;78.00;62.25;54.50
62599;PMS7003;48671;48.922;2.346;2022-11-25T11:18:25;82.75;69.25;61.25
62599;PMS7003;48671;48.922;2.346;2022-11-25T11:20:55;64.00;51.33;38.33
62599;PMS7003;48671;48.922;2.346;2022-11-25T11:23:23;78.50;63.50;52.25
62599;PMS7003;48671;48.922;2.346;2022-11-25T11:26:00;78.00;65.00;54.50
62599;PMS7003;48671;48.922;2.346;2022-11-25T11:31:04;81.25;69.00;59.00
62599;PMS7003;48671;48.922;2.346;2022-11-25T11:39:12;117.50;117.00;89.00
62599;PMS7003;48671;48.922;2.346;2022-11-25T11:42:12;128.50;128.00;102.25
62599;PMS7003;48671;48.922;2.346;2022-11-25T11:52:54;76.67;65.67;38.33
62599;PMS7003;48671;48.922;2.346;2022-11-25T11:58:27;81.75;73.25;44.75
62599;PMS7003;48671;48.922;2.346;2022-11-25T12:01:20;78.67;68.33;40.33
62599;PMS7003;48671;48.922;2.346;2022-11-25T12:06:41;71.00;59.00;33.00
62599;PMS7003;48671;48.922;2.346;2022-11-25T12:09:14;77.00;66.50;43.25
62599;PMS7003;48671;48.922;2.346;2022-11-25T12:11:43;81.25;73.00;46.00
62599;PMS7003;48671;48.922;2.346;2022-11-25T12:14:20;81.25;72.50;49.50
62599;PMS7003;48671;48.922;2.346;2022-11-25T12:16:56;81.00;72.00;45.75
62599;PMS7003;48671;48.922;2.346;2022-11-25T12:22:21;82.75;75.50;58.50
62599;PMS7003;48671;48.922;2.346;2022-11-25T12:25:04;91.33;80.67;66.00
62599;PMS7003;48671;48.922;2.346;2022-11-25T12:30:09;71.00;59.50;34.25
62599;PMS7003;48671;48.922;2.346;2022-11-25T12:32:51;76.25;65.50;44.50
62599;PMS7003;48671;48.922;2.346;2022-11-25T12:35:39;62.00;52.50;27.25
62599;PMS7003;48671;48.922;2.346;2022-11-25T12:46:47;65.00;54.67;34.33
62599;PMS7003;48671;48.922;2.346;2022-11-25T12:49:19;69.50;57.00;29.75
62599;PMS7003;48671;48.922;2.346;2022-11-25T12:52:14;67.33;56.33;30.00
62599;PMS7003;48671;48.922;2.346;2022-11-25T12:58:04;80.00;69.00;38.33
62599;PMS7003;48671;48.922;2.346;2022-11-25T13:06:53;96.00;95.25;71.25
62599;PMS7003;48671;48.922;2.346;2022-11-25T13:12:39;102.75;102.75;76.50
62599;PMS7003;48671;48.922;2.346;2022-11-25T13:18:10;68.75;57.25;29.50
62599;PMS7003;48671;48.922;2.346;2022-11-25T13:20:44;27.00;26.25;6.75
62599;PMS7003;48671;48.922;2.346;2022-11-25T13:25:41;77.50;66.25;57.00
62599;PMS7003;48671;48.922;2.346;2022-11-25T13:31:15;42.00;37.25;19.00
62599;PMS7003;48671;48.922;2.346;2022-11-25T13:36:17;70.25;58.75;37.50
62599;PMS7003;48671;48.922;2.346;2022-11-25T13:49:34;124.75;110.50;69.00
62599;PMS7003;48671;48.922;2.346;2022-11-25T13:54:54;120.20;108.60;61.20
62599;PMS7003;48671;48.922;2.346;2022-11-25T13:57:32;126.75;114.75;68.00
62599;PMS7003;48671;48.922;2.346;2022-11-25T14:00:05;55.00;45.20;15.80
62599;PMS7003;48671;48.922;2.346;2022-11-25T14:02:35;127.50;116.75;65.75
62599;PMS7003;48671;48.922;2.346;2022-11-25T14:05:19;116.80;112.00;64.60
62599;PMS7003;48671;48.922;2.346;2022-11-25T14:25:20;107.00;102.80;64.60
62599;PMS7003;48671;48.922;2.346;2022-11-25T14:27:51;123.40;117.80;67.00
62599;PMS7003;48671;48.922;2.346;2022-11-25T14:30:24;115.20;112.20;64.40
62599;PMS7003;48671;48.922;2.346;2022-11-25T14:32:58;114.00;112.50;64.00
62599;PMS7003;48671;48.922;2.346;2022-11-25T14:40:39;125.00;112.50;68.25
62599;PMS7003;48671;48.922;2.346;2022-11-25T14:43:11;127.50;112.75;69.50
62599;PMS7003;48671;48.922;2.346;2022-11-25T14:45:40;125.25;112.00;68.00
62599;PMS7003;48671;48.922;2.346;2022-11-25T14:48:19;123.75;110.75;67.25
62599;PMS7003;48671;48.922;2.346;2022-11-25T14:50:59;127.33;112.67;70.00
62599;PMS7003;48671;48.922;2.346;2022-11-25T14:53:26;129.33;115.67;69.67
62599;PMS7003;48671;48.922;2.346;2022-11-25T14:55:54;115.50;107.25;67.00
62599;PMS7003;48671;48.922;2.346;2022-11-25T14:58:22;130.00;114.75;69.50
62599;PMS7003;48671;48.922;2.346;2022-11-25T15:01:16;137.00;121.00;72.00
62599;PMS7003;48671;48.922;2.346;2022-11-25T15:03:41;130.75;117.00;72.75
62599;PMS7003;48671;48.922;2.346;2022-11-25T15:06:10;86.60;68.40;32.80
62599;PMS7003;48671;48.922;2.346;2022-11-25T15:08:45;128.00;113.75;67.25
62599;PMS7003;48671;48.922;2.346;2022-11-25T15:11:20;128.25;114.00;72.00
62599;PMS7003;48671;48.922;2.346;2022-11-25T15:14:00;121.25;108.25;66.00
62599;PMS7003;48671;48.922;2.346;2022-11-25T15:16:31;124.00;110.25;67.50
62599;PMS7003;48671;48.922;2.346;2022-11-25T15:19:06;100.25;86.50;39.50
62599;PMS7003;48671;48.922;2.346;2022-11-25T15:21:40;98.25;84.75;41.25
62599;PMS7003;48671;48.922;2.346;2022-11-25T15:24:19;123.50;109.75;64.50
62599;PMS7003;48671;48.922;2.346;2022-11-25T15:26:52;88.00;72.50;33.50
62599;PMS7003;48671;48.922;2.346;2022-11-25T15:29:21;89.20;73.20;32.20
62599;PMS7003;48671;48.922;2.346;2022-11-25T15:31:47;88.25;69.50;32.50
62599;PMS7003;48671;48.922;2.346;2022-11-25T15:34:15;87.75;69.50;32.00
62599;PMS7003;48671;48.922;2.346;2022-11-25T15:36:43;91.75;78.00;36.50
62599;PMS7003;48671;48.922;2.346;2022-11-25T15:41:44;92.25;76.25;35.25
62599;PMS7003;48671;48.922;2.346;2022-11-25T15:44:16;88.00;70.25;30.75
62599;PMS7003;48671;48.922;2.346;2022-11-25T15:46:54;90.00;74.75;32.75
62599;PMS7003;48671;48.922;2.346;2022-11-25T15:49:24;86.20;64.80;28.20
62599;PMS7003;48671;48.922;2.346;2022-11-25T15:52:03;81.50;59.25;25.00
62599;PMS7003;48671;48.922;2.346;2022-11-25T15:54:39;80.00;56.60;17.60
62599;PMS7003;48671;48.922;2.346;2022-11-25T15:57:41;82.40;60.00;24.20
62599;PMS7003;48671;48.922;2.346;2022-11-25T16:00:03;91.50;75.00;35.25
62599;PMS7003;48671;48.922;2.346;2022-11-25T16:16:07;76.40;55.40;17.60
62599;PMS7003;48671;48.922;2.346;2022-11-25T16:18:43;80.40;57.40;20.80